createdAt,value
2022-11-22T09:42:34.593Z,912.00
2022-11-22T09:43:29.740Z,876.00
2022-11-22T09:44:30.733Z,844.00
2022-11-22T09:45:29.994Z,812.00
2022-11-22T09:46:29.645Z,792.00
2022-11-22T09:47:29.603Z,808.00
2022-11-22T09:48:29.584Z,844.00
2022-11-22T09:49:29.897Z,852.00
2022-11-22T09:50:29.529Z,848.00
2022-11-22T09:51:29.702Z,864.00
2022-11-22T09:52:29.837Z,904.00
2022-11-22T09:53:29.999Z,964.00
2022-11-22T09:54:30.162Z,996.00
2022-11-22T09:55:30.314Z,996.00
2022-11-22T09:56:29.366Z,996.00
2022-11-22T09:57:29.341Z,1028.00
2022-11-22T09:58:29.416Z,1044.00
2022-11-22T09:59:29.695Z,1056.00
2022-11-22T10:00:29.272Z,1044.00
2022-11-22T10:01:29.372Z,1068.00
2022-11-22T10:02:29.220Z,1076.00
2022-11-22T10:03:29.219Z,1040.00
2022-11-22T10:04:29.194Z,1056.00
2022-11-22T10:05:29.138Z,1060.00
2022-11-22T10:06:29.098Z,1020.00
2022-11-22T10:07:29.135Z,1000.00
2022-11-22T10:08:29.226Z,1024.00
2022-11-22T10:09:29.610Z,1012.00
2022-11-22T10:10:29.499Z,984.00
2022-11-22T10:11:34.890Z,972.00
2022-11-22T10:12:29.793Z,964.00
2022-11-22T10:13:28.933Z,960.00
2022-11-22T10:14:29.000Z,956.00
2022-11-22T10:15:28.866Z,956.00
2022-11-22T10:16:28.850Z,952.00
2022-11-22T10:17:28.853Z,952.00
2022-11-22T10:18:28.792Z,964.00
2022-11-22T10:19:29.222Z,960.00
2022-11-22T10:20:28.782Z,956.00
2022-11-22T10:21:28.752Z,956.00
2022-11-22T10:22:28.807Z,952.00
2022-11-22T10:23:28.668Z,948.00
2022-11-22T10:24:28.681Z,944.00
2022-11-22T10:25:28.812Z,932.00
2022-11-22T10:26:28.946Z,916.00
2022-11-22T10:27:29.112Z,844.00
2022-11-22T10:28:29.256Z,836.00
2022-11-22T10:29:29.902Z,848.00
2022-11-22T10:30:28.634Z,892.00
2022-11-22T10:31:28.475Z,900.00
2022-11-22T10:32:28.545Z,868.00
2022-11-22T10:33:28.448Z,820.00
2022-11-22T10:34:28.465Z,832.00
2022-11-22T10:35:29.444Z,848.00
2022-11-22T10:36:28.495Z,820.00
2022-11-22T10:37:28.471Z,844.00
2022-11-22T10:38:28.577Z,828.00
2022-11-22T10:39:34.091Z,800.00
2022-11-22T10:40:28.478Z,760.00
2022-11-22T10:41:28.401Z,740.00
2022-11-22T10:42:28.592Z,764.00
2022-11-22T10:43:28.717Z,820.00
2022-11-22T10:44:28.914Z,888.00
2022-11-22T10:45:29.037Z,856.00
2022-11-22T10:46:28.223Z,860.00
2022-11-22T10:47:33.014Z,872.00
2022-11-22T10:48:28.254Z,816.00
2022-11-22T10:49:28.495Z,764.00
2022-11-22T10:50:27.990Z,720.00
2022-11-22T10:51:27.971Z,692.00
2022-11-22T10:52:27.969Z,712.00
2022-11-22T10:53:27.894Z,740.00
2022-11-22T10:54:27.864Z,740.00
2022-11-22T10:55:27.804Z,792.00
2022-11-22T10:56:27.828Z,768.00
2022-11-22T10:57:27.965Z,732.00
2022-11-22T10:58:28.104Z,736.00
2022-11-22T10:59:29.071Z,732.00
2022-11-22T11:00:28.451Z,736.00
2022-11-22T11:01:28.680Z,720.00
2022-11-22T11:02:27.782Z,708.00
2022-11-22T11:03:27.603Z,692.00
2022-11-22T11:04:27.569Z,668.00
2022-11-22T11:05:27.541Z,648.00
2022-11-22T11:06:43.622Z,684.00
2022-11-22T11:07:27.491Z,680.00
2022-11-22T11:08:47.730Z,668.00
2022-11-22T11:10:34.032Z,632.00
2022-11-22T11:11:27.373Z,656.00
2022-11-22T11:12:27.375Z,692.00
2022-11-22T11:13:27.365Z,656.00
2022-11-22T11:14:27.715Z,620.00
2022-11-22T11:15:27.654Z,604.00
2022-11-22T11:16:27.825Z,540.00
2022-11-22T11:17:27.958Z,488.00
2022-11-22T11:18:28.212Z,484.00
2022-11-22T11:19:27.199Z,532.00
2022-11-22T11:20:27.218Z,568.00
2022-11-22T11:21:27.146Z,600.00
2022-11-22T11:22:58.515Z,620.00
2022-11-22T11:23:27.226Z,608.00
2022-11-22T11:24:27.136Z,572.00
2022-11-22T11:25:27.052Z,548.00
2022-11-22T11:26:26.995Z,504.00
2022-11-22T11:27:26.957Z,488.00
2022-11-22T11:28:26.949Z,468.00
2022-11-22T11:29:26.912Z,472.00
2022-11-22T11:30:26.911Z,460.00
2022-11-22T11:31:26.973Z,440.00
2022-11-22T11:32:27.204Z,412.00
2022-11-22T11:33:27.307Z,392.00
2022-11-22T11:34:27.773Z,380.00
2022-11-22T11:35:27.640Z,372.00
2022-11-22T11:36:26.731Z,352.00
2022-11-22T11:37:26.710Z,352.00
2022-11-22T11:38:26.667Z,352.00
2022-11-22T11:39:26.722Z,344.00
2022-11-22T11:40:26.634Z,336.00
2022-11-22T11:41:26.644Z,320.00
2022-11-22T11:42:26.557Z,308.00
2022-11-22T11:43:26.541Z,328.00
2022-11-22T11:44:26.500Z,320.00
2022-11-22T11:45:26.473Z,332.00
2022-11-22T11:46:26.460Z,332.00
2022-11-22T11:47:26.481Z,312.00
2022-11-22T11:48:26.611Z,308.00
2022-11-22T11:49:26.735Z,308.00
2022-11-22T11:50:26.953Z,308.00
2022-11-22T11:51:27.013Z,312.00
2022-11-22T11:52:27.212Z,328.00
2022-11-22T11:53:26.263Z,320.00
2022-11-22T11:54:26.276Z,336.00
2022-11-22T11:55:26.231Z,336.00
2022-11-22T11:56:26.227Z,324.00
2022-11-22T11:57:26.150Z,320.00
2022-11-22T11:58:26.135Z,344.00
2022-11-22T11:59:26.139Z,352.00
2022-11-22T12:00:26.065Z,340.00
2022-11-22T12:01:26.071Z,328.00
2022-11-22T12:02:26.053Z,308.00
2022-11-22T12:03:25.987Z,312.00
2022-11-22T12:04:26.009Z,308.00
2022-11-22T12:05:26.114Z,320.00
2022-11-22T12:06:26.343Z,332.00
2022-11-22T12:07:26.457Z,328.00
2022-11-22T12:08:26.572Z,312.00
2022-11-22T12:09:26.706Z,304.00
2022-11-22T12:10:25.837Z,276.00
2022-11-22T12:11:25.771Z,268.00
2022-11-22T12:12:25.756Z,268.00
2022-11-22T12:13:25.738Z,248.00
2022-11-22T12:14:27.850Z,232.00
2022-11-22T12:15:25.673Z,232.00
2022-11-22T12:16:25.654Z,228.00
2022-11-22T12:17:25.648Z,228.00
2022-11-22T12:18:25.645Z,232.00
2022-11-22T12:19:25.569Z,216.00
2022-11-22T12:20:25.582Z,220.00
2022-11-22T12:21:25.507Z,208.00
2022-11-22T12:22:48.437Z,204.00
2022-11-22T12:23:25.774Z,188.00
2022-11-22T12:26:26.062Z,184.00
2022-11-22T12:27:26.217Z,188.00
2022-11-22T12:28:25.331Z,192.00
2022-11-22T12:29:25.322Z,196.00
2022-11-22T12:30:25.311Z,180.00
2022-11-22T12:31:25.238Z,196.00
2022-11-22T12:32:25.246Z,196.00
2022-11-22T12:33:25.205Z,196.00
2022-11-22T12:34:25.174Z,192.00
2022-11-22T12:35:25.164Z,192.00
2022-11-22T12:36:31.217Z,192.00
2022-11-22T12:37:25.078Z,196.00
2022-11-22T12:38:25.160Z,200.00
2022-11-22T12:39:25.122Z,204.00
2022-11-22T12:40:25.009Z,200.00
2022-11-22T12:41:25.118Z,204.00
2022-11-22T12:42:25.237Z,204.00
2022-11-22T12:43:25.308Z,204.00
2022-11-22T12:44:25.432Z,208.00
2022-11-22T12:45:25.572Z,208.00
2022-11-22T12:46:26.272Z,212.00
2022-11-22T12:47:24.841Z,208.00
2022-11-22T12:48:23.774Z,180.00
2022-11-22T12:48:24.935Z,224.00
2022-11-22T12:49:24.770Z,228.00
2022-11-22T12:50:24.757Z,220.00
2022-11-22T12:51:24.705Z,212.00
2022-11-22T12:52:24.710Z,204.00
2022-11-22T12:53:24.689Z,204.00
2022-11-22T12:54:24.669Z,200.00
2022-11-22T12:55:24.620Z,188.00
2022-11-22T12:56:29.830Z,180.00
2022-11-22T12:57:24.719Z,176.00
2022-11-22T12:58:24.607Z,168.00
2022-11-22T12:59:24.696Z,160.00
2022-11-22T13:00:24.941Z,148.00
2022-11-22T13:01:25.042Z,140.00
2022-11-22T13:02:25.132Z,132.00
2022-11-22T13:03:25.319Z,116.00
2022-11-22T13:04:24.423Z,112.00
2022-11-22T13:05:24.340Z,112.00
2022-11-22T13:06:24.347Z,132.00
2022-11-22T13:07:24.432Z,128.00
2022-11-22T13:08:24.261Z,120.00
2022-11-22T13:09:24.239Z,112.00
2022-11-22T13:10:24.319Z,112.00
2022-11-22T13:11:24.180Z,108.00
2022-11-22T13:12:24.168Z,108.00
2022-11-22T13:13:24.131Z,108.00
2022-11-22T13:14:24.098Z,104.00
2022-11-22T13:15:24.098Z,100.00
2022-11-22T13:16:24.048Z,104.00
2022-11-22T13:17:24.105Z,108.00
2022-11-22T13:18:24.243Z,112.00
2022-11-22T13:19:24.360Z,104.00
2022-11-22T13:20:24.478Z,100.00
2022-11-22T13:21:24.641Z,96.00
2022-11-22T13:22:24.760Z,92.00
2022-11-22T13:23:24.860Z,92.00
2022-11-22T13:24:23.853Z,88.00
2022-11-22T13:25:23.800Z,88.00
2022-11-22T13:26:23.876Z,84.00
2022-11-22T13:27:23.763Z,80.00
2022-11-22T13:28:23.751Z,72.00
2022-11-22T13:29:23.720Z,72.00
2022-11-22T13:30:23.678Z,68.00
2022-11-22T13:31:23.675Z,64.00
2022-11-22T13:32:23.623Z,56.00
2022-11-22T13:33:23.588Z,52.00
2022-11-22T13:34:23.605Z,48.00
2022-11-22T13:35:23.539Z,44.00
2022-11-22T13:36:23.518Z,48.00
2022-11-22T13:37:23.628Z,44.00
2022-11-22T13:38:23.767Z,44.00
2022-11-22T13:39:23.937Z,40.00
2022-11-22T13:40:24.059Z,40.00
2022-11-22T13:41:24.173Z,36.00
2022-11-22T13:42:24.440Z,36.00
2022-11-22T13:43:23.354Z,32.00
2022-11-22T13:44:23.359Z,32.00
2022-11-22T13:45:23.273Z,28.00
2022-11-22T13:46:23.278Z,28.00
2022-11-22T13:47:23.244Z,28.00
2022-11-22T13:48:23.203Z,24.00
2022-11-22T13:49:23.201Z,24.00
2022-11-22T13:50:23.200Z,24.00
2022-11-22T13:51:23.125Z,20.00
2022-11-22T13:52:23.110Z,20.00
2022-11-22T13:53:23.061Z,20.00
2022-11-22T13:54:23.087Z,16.00
2022-11-22T13:55:23.063Z,12.00
2022-11-22T13:56:23.227Z,12.00
2022-11-22T13:57:23.339Z,12.00
2022-11-22T13:58:23.614Z,12.00
2022-11-22T13:59:23.583Z,8.00
2022-11-22T14:00:23.679Z,12.00
2022-11-22T14:01:23.899Z,8.00
2022-11-22T14:02:22.860Z,8.00
2022-11-22T14:03:22.788Z,8.00
2022-11-22T14:04:22.780Z,8.00
2022-11-22T14:05:22.762Z,4.00
2022-11-22T14:06:22.706Z,8.00
2022-11-22T14:07:22.727Z,4.00
2022-11-22T14:08:22.694Z,4.00
2022-11-22T14:09:22.629Z,0.00
2022-11-22T14:10:22.698Z,4.00
2022-11-22T14:11:22.567Z,4.00
2022-11-22T14:12:22.551Z,4.00
2022-11-22T14:13:22.526Z,0.00
2022-11-22T14:14:22.679Z,0.00
2022-11-22T14:15:22.657Z,0.00
2022-11-22T14:16:22.774Z,4.00
2022-11-22T14:17:22.916Z,4.00
2022-11-22T14:18:23.071Z,4.00
2022-11-22T14:19:23.175Z,4.00
2022-11-22T14:20:23.294Z,0.00
2022-11-22T14:21:22.302Z,0.00
2022-11-22T14:22:22.291Z,0.00
2022-11-22T14:23:22.244Z,0.00
2022-11-22T14:24:22.221Z,0.00
2022-11-22T14:25:22.207Z,0.00
2022-11-22T14:26:22.163Z,0.00
2022-11-22T14:27:22.137Z,0.00
2022-11-22T14:28:22.122Z,0.00
2022-11-22T14:29:22.152Z,0.00
2022-11-22T14:30:22.167Z,0.00
2022-11-22T14:31:22.041Z,0.00
2022-11-22T14:32:22.016Z,0.00
2022-11-22T14:33:21.980Z,0.00
2022-11-22T14:34:22.077Z,0.00
2022-11-22T14:35:27.767Z,0.00
2022-11-22T14:36:22.385Z,0.00
2022-11-22T14:37:22.499Z,0.00
2022-11-22T14:38:28.332Z,0.00
2022-11-22T14:39:22.726Z,0.00
2022-11-22T14:40:21.794Z,0.00
2022-11-22T14:41:21.782Z,0.00
2022-11-22T14:42:21.803Z,0.00
2022-11-22T14:43:21.709Z,0.00
2022-11-22T14:44:21.707Z,0.00
2022-11-22T14:45:23.316Z,0.00
2022-11-22T14:46:51.063Z,0.00
2022-11-22T14:47:21.618Z,0.00
2022-11-22T14:48:21.628Z,0.00
2022-11-22T14:49:21.542Z,0.00
2022-11-22T14:50:21.561Z,0.00
2022-11-22T14:51:21.498Z,0.00
2022-11-22T14:52:21.463Z,0.00
2022-11-22T14:53:21.513Z,0.00
2022-11-22T14:54:21.663Z,0.00
2022-11-22T14:55:21.783Z,0.00
2022-11-22T14:56:21.896Z,0.00
2022-11-22T14:57:22.023Z,0.00
2022-11-22T14:58:22.166Z,0.00
2022-11-22T14:59:21.298Z,0.00
2022-11-22T15:00:21.253Z,0.00
2022-11-22T15:01:21.215Z,0.00
2022-11-22T15:02:21.416Z,0.00
2022-11-22T15:03:21.171Z,0.00
2022-11-22T15:09:11.237Z,0.00
2022-11-22T15:09:12.945Z,0.00
2022-11-22T15:09:13.282Z,0.00
2022-11-22T15:09:14.329Z,0.00
2022-11-22T15:09:16.117Z,0.00
2022-11-22T15:09:48.433Z,0.00
2022-11-22T15:10:21.006Z,0.00
2022-11-22T15:11:20.958Z,0.00
2022-11-22T15:12:20.967Z,0.00
2022-11-22T15:13:21.091Z,0.00
2022-11-22T15:14:21.186Z,0.00
2022-11-22T15:57:24.531Z,0.00
2022-11-22T15:58:19.680Z,4.00
2022-11-22T15:59:19.654Z,0.00
2022-11-22T16:00:19.620Z,0.00
2022-11-22T16:01:20.624Z,0.00
2022-11-22T16:02:19.571Z,0.00
2022-11-22T16:03:19.567Z,0.00
2022-11-22T16:04:19.504Z,0.00
2022-11-22T16:06:10.444Z,0.00
2022-11-22T16:06:19.548Z,0.00
2022-11-22T16:07:19.453Z,0.00
2022-11-22T16:08:19.411Z,0.00
2022-11-22T16:09:19.362Z,0.00
2022-11-22T16:10:19.370Z,0.00
2022-11-22T16:11:19.533Z,0.00
2022-11-22T16:12:19.628Z,0.00
2022-11-22T16:13:19.771Z,0.00
2022-11-22T16:14:19.886Z,0.00
2022-11-22T16:15:20.002Z,0.00
2022-11-22T16:16:20.169Z,0.00
2022-11-22T16:17:19.166Z,0.00
2022-11-22T16:18:19.139Z,0.00
2022-11-22T16:19:19.147Z,0.00
2022-11-22T16:20:19.079Z,0.00
2022-11-22T16:21:19.110Z,0.00
2022-11-22T16:22:19.114Z,0.00
2022-11-22T16:23:18.995Z,0.00
2022-11-22T16:24:18.989Z,0.00
2022-11-22T16:25:18.932Z,0.00
2022-11-22T16:26:18.929Z,0.00
2022-11-22T16:27:18.911Z,0.00
2022-11-22T16:28:18.893Z,0.00
2022-11-22T16:29:18.831Z,0.00
2022-11-22T16:30:23.505Z,0.00
2022-11-22T16:31:19.121Z,0.00
2022-11-22T16:32:19.302Z,0.00
2022-11-22T16:33:19.373Z,4.00
2022-11-22T16:34:19.489Z,4.00
2022-11-22T16:35:29.373Z,0.00
2022-11-22T16:36:18.742Z,0.00
2022-11-22T16:37:18.668Z,0.00
2022-11-22T16:38:18.684Z,0.00
2022-11-22T16:39:18.587Z,0.00
2022-11-22T16:40:18.547Z,0.00
2022-11-22T16:41:18.518Z,0.00
2022-11-22T16:42:18.525Z,0.00
2022-11-22T16:43:18.488Z,0.00
2022-11-22T16:44:18.415Z,0.00
2022-11-22T16:45:18.419Z,0.00
2022-11-22T16:46:18.423Z,0.00
2022-11-22T16:47:18.438Z,0.00
2022-11-22T16:48:31.461Z,0.00
2022-11-22T16:49:18.351Z,0.00
2022-11-22T16:50:18.462Z,0.00
2022-11-22T16:51:18.605Z,0.00
2022-11-22T16:52:18.786Z,0.00
2022-11-22T16:53:18.883Z,0.00
2022-11-22T16:54:19.095Z,0.00
2022-11-22T16:55:19.111Z,0.00
2022-11-22T16:56:18.130Z,0.00
2022-11-22T16:57:18.094Z,0.00
2022-11-22T16:58:18.053Z,0.00
2022-11-22T16:59:18.008Z,0.00
2022-11-22T17:00:18.012Z,0.00
2022-11-22T17:01:18.021Z,0.00
2022-11-22T17:02:17.930Z,0.00
2022-11-22T17:03:17.911Z,0.00
2022-11-22T17:04:17.884Z,0.00
2022-11-22T17:05:17.837Z,0.00
2022-11-22T17:06:17.832Z,0.00
2022-11-22T17:07:17.853Z,0.00
2022-11-22T17:08:17.760Z,0.00
2022-11-22T17:09:17.885Z,0.00
2022-11-22T17:10:18.092Z,0.00
2022-11-22T17:11:18.130Z,0.00
2022-11-22T17:12:18.297Z,0.00
2022-11-22T17:13:18.409Z,0.00
2022-11-22T17:14:18.507Z,0.00
2022-11-22T17:15:17.587Z,0.00
2022-11-22T17:16:17.553Z,0.00
2022-11-22T17:17:17.509Z,0.00
2022-11-22T17:18:17.497Z,0.00
2022-11-22T17:19:51.732Z,0.00
2022-11-22T17:20:17.434Z,0.00
2022-11-22T17:21:17.423Z,0.00
2022-11-22T17:22:17.382Z,0.00
2022-11-22T17:23:17.350Z,0.00
2022-11-22T17:24:17.347Z,0.00
2022-11-22T17:25:17.289Z,0.00
2022-11-22T17:26:17.400Z,0.00
2022-11-22T17:27:17.262Z,0.00
2022-11-22T17:28:17.268Z,0.00
2022-11-22T17:30:17.489Z,0.00
2022-11-22T17:31:17.606Z,0.00
2022-11-22T17:32:17.750Z,4.00
2022-11-22T17:33:17.876Z,0.00
2022-11-22T17:34:18.027Z,0.00
2022-11-22T17:35:17.015Z,0.00
2022-11-22T17:36:17.018Z,0.00
2022-11-22T17:37:16.961Z,0.00
2022-11-22T17:38:16.930Z,0.00
2022-11-22T17:39:16.931Z,0.00
2022-11-22T17:40:16.934Z,0.00
2022-11-22T17:41:16.847Z,0.00
2022-11-22T17:42:16.929Z,0.00
2022-11-22T17:43:16.797Z,0.00
2022-11-22T17:44:16.766Z,0.00
2022-11-22T17:45:16.786Z,0.00
2022-11-22T17:46:16.708Z,0.00
2022-11-22T17:47:16.688Z,0.00
2022-11-22T17:48:16.801Z,0.00
2022-11-22T17:49:16.900Z,0.00
2022-11-22T17:50:17.027Z,0.00
2022-11-22T17:51:17.159Z,0.00
2022-11-22T17:52:17.313Z,0.00
2022-11-22T17:53:17.442Z,0.00
2022-11-22T17:54:16.522Z,0.00
2022-11-22T17:55:16.459Z,0.00
2022-11-22T17:56:16.443Z,0.00
2022-11-22T17:57:16.427Z,0.00
2022-11-22T17:58:16.492Z,0.00
2022-11-22T17:59:16.357Z,0.00
2022-11-22T18:00:16.357Z,0.00
2022-11-22T18:01:16.318Z,0.00
2022-11-22T18:02:16.278Z,0.00
2022-11-22T18:03:16.305Z,0.00
2022-11-22T18:04:16.228Z,0.00
2022-11-22T18:05:16.192Z,0.00
2022-11-22T18:06:16.150Z,0.00
2022-11-22T18:07:16.218Z,0.00
2022-11-22T18:08:16.252Z,0.00
2022-11-22T18:09:16.364Z,0.00
2022-11-22T18:10:16.524Z,0.00
2022-11-22T18:11:16.654Z,0.00
2022-11-22T18:12:16.744Z,0.00
2022-11-22T18:13:21.586Z,0.00
2022-11-22T18:14:16.045Z,0.00
2022-11-22T18:15:15.938Z,0.00
2022-11-22T18:16:15.951Z,0.00
2022-11-22T18:17:15.871Z,0.00
2022-11-22T18:18:40.448Z,0.00
2022-11-22T18:19:15.792Z,0.00
2022-11-22T18:20:15.775Z,0.00
2022-11-22T18:21:17.454Z,0.00
2022-11-22T18:22:15.701Z,0.00
2022-11-22T18:23:15.699Z,0.00
2022-11-22T18:24:15.646Z,0.00
2022-11-22T18:25:15.625Z,0.00
2022-11-22T18:27:15.615Z,0.00
2022-11-22T18:28:15.807Z,0.00
2022-11-22T18:30:16.091Z,0.00
2022-11-22T18:31:16.149Z,0.00
2022-11-22T18:32:16.266Z,0.00
2022-11-22T18:33:16.522Z,0.00
2022-11-22T18:34:15.379Z,0.00
2022-11-22T18:35:15.513Z,0.00
2022-11-22T18:36:52.983Z,0.00
2022-11-22T18:37:15.292Z,0.00
2022-11-22T18:38:15.287Z,0.00
2022-11-22T18:39:15.242Z,0.00
2022-11-22T18:40:15.202Z,0.00
2022-11-22T18:41:15.207Z,0.00
2022-11-22T18:42:15.143Z,0.00
2022-11-22T18:43:15.130Z,0.00
2022-11-22T18:44:15.119Z,0.00
2022-11-22T18:45:15.065Z,0.00
2022-11-22T18:46:15.140Z,0.00
2022-11-22T18:47:15.085Z,0.00
2022-11-22T18:48:15.227Z,0.00
2022-11-22T18:49:15.355Z,0.00
2022-11-22T18:51:15.581Z,0.00
2022-11-22T18:52:17.837Z,0.00
2022-11-22T18:53:15.821Z,0.00
2022-11-22T18:54:14.860Z,0.00
2022-11-22T18:55:14.794Z,0.00
2022-11-22T18:56:14.763Z,0.00
2022-11-22T18:57:14.733Z,0.00
2022-11-22T18:58:14.698Z,0.00
2022-11-22T18:59:14.730Z,0.00
2022-11-22T19:00:14.650Z,0.00
2022-11-22T19:01:14.695Z,0.00
2022-11-22T19:02:14.689Z,0.00
2022-11-22T19:03:14.564Z,0.00
2022-11-22T19:04:14.537Z,0.00
2022-11-22T19:05:14.539Z,0.00
2022-11-22T19:06:14.475Z,0.00
2022-11-22T19:07:14.648Z,0.00
2022-11-22T19:08:14.680Z,0.00
2022-11-22T19:09:14.800Z,0.00
2022-11-22T19:10:14.925Z,0.00
2022-11-22T19:11:15.066Z,0.00
2022-11-22T19:12:15.196Z,0.00
2022-11-22T19:13:15.303Z,0.00
2022-11-22T19:14:14.274Z,0.00
2022-11-22T19:15:14.242Z,0.00
2022-11-22T19:16:14.210Z,0.00
2022-11-22T19:17:18.584Z,0.00
2022-11-22T19:18:14.250Z,0.00
2022-11-22T19:19:14.121Z,0.00
2022-11-22T19:20:39.254Z,0.00
2022-11-22T19:21:14.065Z,0.00
2022-11-22T19:22:14.040Z,0.00
2022-11-22T19:23:14.047Z,0.00
2022-11-22T19:24:13.974Z,0.00
2022-11-22T19:25:13.949Z,0.00
2022-11-22T19:26:13.945Z,0.00
2022-11-22T19:27:13.955Z,0.00
2022-11-22T19:28:14.055Z,0.00
2022-11-22T19:29:14.183Z,0.00
2022-11-22T19:30:14.337Z,0.00
2022-11-22T19:31:14.425Z,0.00
2022-11-22T19:32:14.553Z,0.00
2022-11-22T19:33:14.672Z,0.00
2022-11-22T19:34:13.814Z,0.00
2022-11-22T19:35:13.720Z,0.00
2022-11-22T19:36:13.638Z,0.00
2022-11-22T19:37:13.635Z,0.00
2022-11-22T19:38:13.633Z,0.00
2022-11-22T19:39:13.559Z,0.00
2022-11-22T19:40:13.541Z,0.00
2022-11-22T19:41:13.534Z,0.00
2022-11-22T19:42:13.478Z,0.00
2022-11-22T19:43:16.375Z,0.00
2022-11-22T19:44:13.426Z,0.00
2022-11-22T19:45:13.399Z,0.00
2022-11-22T19:46:13.384Z,0.00
2022-11-22T19:47:13.363Z,0.00
2022-11-22T19:48:13.480Z,0.00
2022-11-22T19:49:13.603Z,0.00
2022-11-22T19:50:13.831Z,0.00
2022-11-22T19:51:13.883Z,0.00
2022-11-22T19:52:14.022Z,0.00
2022-11-22T19:53:14.132Z,0.00
2022-11-22T19:54:13.138Z,0.00
2022-11-22T19:55:13.124Z,0.00
2022-11-22T19:56:13.081Z,0.00
2022-11-22T19:57:13.058Z,0.00
2022-11-22T19:58:13.046Z,0.00
2022-11-22T19:59:13.016Z,0.00
2022-11-22T20:00:12.982Z,0.00
2022-11-22T20:01:13.059Z,0.00
2022-11-22T20:02:12.915Z,0.00
2022-11-22T20:03:12.893Z,0.00
2022-11-22T20:04:12.884Z,0.00
2022-11-22T20:05:12.895Z,0.00
2022-11-22T20:06:12.911Z,0.00
2022-11-22T20:07:12.874Z,0.00
2022-11-22T20:08:12.998Z,0.00
2022-11-22T20:09:13.111Z,0.00
2022-11-22T20:10:13.227Z,0.00
2022-11-22T20:11:13.354Z,0.00
2022-11-22T20:12:13.458Z,0.00
2022-11-22T20:13:13.581Z,0.00
2022-11-22T20:14:12.583Z,0.00
2022-11-22T20:15:12.584Z,0.00
2022-11-22T20:16:12.554Z,0.00
2022-11-22T20:17:12.533Z,0.00
2022-11-22T20:18:12.469Z,0.00
2022-11-22T20:19:12.675Z,0.00
2022-11-22T20:20:12.413Z,0.00
2022-11-22T20:21:12.718Z,0.00
2022-11-22T20:22:12.460Z,0.00
2022-11-22T20:23:12.339Z,0.00
2022-11-22T20:24:12.303Z,0.00
2022-11-22T20:25:12.288Z,0.00
2022-11-22T20:26:12.249Z,0.00
2022-11-22T20:27:12.401Z,0.00
2022-11-22T20:28:12.517Z,0.00
2022-11-22T20:29:12.632Z,0.00
2022-11-22T20:30:12.737Z,0.00
2022-11-22T20:31:12.876Z,0.00
2022-11-22T20:32:12.998Z,0.00
2022-11-22T20:33:12.062Z,0.00
2022-11-22T20:34:12.044Z,0.00
2022-11-22T20:35:12.004Z,0.00
2022-11-22T20:36:11.974Z,0.00
2022-11-22T20:37:11.955Z,0.00
2022-11-22T20:38:12.023Z,0.00
2022-11-22T20:39:11.904Z,0.00
2022-11-22T20:40:11.879Z,0.00
2022-11-22T20:41:11.837Z,0.00
2022-11-22T20:42:33.648Z,0.00
2022-11-22T20:43:11.818Z,0.00
2022-11-22T20:44:11.756Z,0.00
2022-11-22T20:45:11.728Z,0.00
2022-11-22T20:46:11.802Z,0.00
2022-11-22T20:47:11.941Z,0.00
2022-11-22T20:48:12.053Z,0.00
2022-11-22T20:49:12.161Z,0.00
2022-11-22T20:50:12.288Z,0.00
2022-11-22T20:51:12.419Z,0.00
2022-11-22T20:52:11.553Z,0.00
2022-11-22T20:53:11.514Z,0.00
2022-11-22T20:54:11.584Z,0.00
2022-11-22T20:55:11.467Z,0.00
2022-11-22T20:56:11.454Z,0.00
2022-11-22T20:57:11.400Z,0.00
2022-11-22T20:58:11.382Z,0.00
2022-11-22T20:59:11.365Z,0.00
2022-11-22T21:00:11.315Z,0.00
2022-11-22T21:01:11.384Z,0.00
2022-11-22T21:02:11.267Z,0.00
2022-11-22T21:03:11.234Z,0.00
2022-11-22T21:04:11.221Z,0.00
2022-11-22T21:05:11.255Z,0.00
2022-11-22T21:06:11.357Z,0.00
2022-11-22T21:07:11.521Z,0.00
2022-11-22T21:08:11.605Z,0.00
2022-11-22T21:09:11.770Z,0.00
2022-11-22T21:10:11.998Z,0.00
2022-11-22T21:11:12.008Z,0.00
2022-11-22T21:12:10.984Z,0.00
2022-11-22T21:13:10.977Z,0.00
2022-11-22T21:14:10.921Z,0.00
2022-11-22T21:15:10.902Z,0.00
2022-11-22T21:16:22.390Z,0.00
2022-11-22T21:17:37.096Z,0.00
2022-11-22T21:18:25.338Z,0.00
2022-11-22T21:19:10.806Z,0.00
2022-11-22T21:20:10.755Z,0.00
2022-11-22T21:21:10.737Z,0.00
2022-11-22T21:22:10.724Z,0.00
2022-11-22T21:23:10.658Z,0.00
2022-11-22T21:24:10.689Z,0.00
2022-11-22T21:25:10.844Z,0.00
2022-11-22T21:26:11.083Z,0.00
2022-11-22T21:27:11.184Z,0.00
2022-11-22T21:28:11.230Z,0.00
2022-11-22T21:29:15.872Z,0.00
2022-11-22T21:30:10.491Z,0.00
2022-11-22T21:31:10.451Z,0.00
2022-11-22T21:32:10.420Z,0.00
2022-11-22T21:33:10.390Z,0.00
2022-11-22T21:34:10.392Z,0.00
2022-11-22T21:35:10.324Z,0.00
2022-11-22T21:36:10.321Z,0.00
2022-11-22T21:37:10.316Z,0.00
2022-11-22T21:38:10.244Z,0.00
2022-11-22T21:39:10.226Z,0.00
2022-11-22T21:40:10.212Z,0.00
2022-11-22T21:41:38.159Z,0.00
2022-11-22T21:42:10.148Z,0.00
2022-11-22T21:43:10.173Z,0.00
2022-11-22T21:44:10.293Z,0.00
2022-11-22T21:45:10.425Z,0.00
2022-11-22T21:46:10.566Z,0.00
2022-11-22T21:47:10.685Z,0.00
2022-11-22T21:48:10.818Z,0.00
2022-11-22T21:49:09.942Z,0.00
2022-11-22T21:50:11.801Z,0.00
2022-11-22T21:51:09.893Z,0.00
2022-11-22T21:52:09.855Z,0.00
2022-11-22T21:53:09.826Z,0.00
2022-11-22T21:54:09.825Z,0.00
2022-11-22T21:55:09.872Z,0.00
2022-11-22T21:56:09.742Z,0.00
2022-11-22T21:57:09.735Z,0.00
2022-11-22T21:58:09.811Z,0.00
2022-11-22T21:59:09.661Z,0.00
2022-11-22T22:00:09.666Z,0.00
2022-11-22T22:01:13.853Z,0.00
2022-11-22T22:02:09.644Z,0.00
2022-11-22T22:03:09.792Z,0.00
2022-11-22T22:04:09.899Z,0.00
2022-11-22T22:05:10.035Z,0.00
2022-11-22T22:06:10.178Z,0.00
2022-11-22T22:07:29.757Z,0.00
2022-11-22T22:08:09.437Z,0.00
2022-11-22T22:09:09.400Z,0.00
2022-11-22T22:10:09.350Z,0.00
2022-11-22T22:11:09.316Z,0.00
2022-11-22T22:12:09.321Z,0.00
2022-11-22T22:13:09.261Z,0.00
2022-11-22T22:14:09.354Z,0.00
2022-11-22T22:15:09.239Z,0.00
2022-11-22T22:16:09.186Z,0.00
2022-11-22T22:17:09.172Z,0.00
2022-11-22T22:18:09.147Z,0.00
2022-11-22T22:19:09.572Z,0.00
2022-11-22T22:20:09.069Z,0.00
2022-11-22T22:21:09.071Z,0.00
2022-11-22T22:22:09.175Z,0.00
2022-11-22T22:23:09.293Z,0.00
2022-11-22T22:24:09.397Z,0.00
2022-11-22T22:25:09.527Z,0.00
2022-11-22T22:26:09.648Z,0.00
2022-11-22T22:27:09.771Z,0.00
2022-11-22T22:28:08.865Z,0.00
2022-11-22T22:29:08.845Z,0.00
2022-11-22T22:30:08.914Z,0.00
2022-11-22T22:31:08.830Z,0.00
2022-11-22T22:32:10.723Z,0.00
2022-11-22T22:33:08.719Z,0.00
2022-11-22T22:34:08.747Z,0.00
2022-11-22T22:35:08.660Z,0.00
2022-11-22T22:36:08.660Z,0.00
2022-11-22T22:37:08.601Z,0.00
2022-11-22T22:38:08.578Z,0.00
2022-11-22T22:39:08.554Z,0.00
2022-11-22T22:40:08.528Z,0.00
2022-11-22T22:41:08.585Z,0.00
2022-11-22T22:42:08.720Z,0.00
2022-11-22T22:43:08.834Z,0.00
2022-11-22T22:44:08.953Z,0.00
2022-11-22T22:45:09.079Z,0.00
2022-11-22T22:46:09.304Z,0.00
2022-11-22T22:47:09.344Z,0.00
2022-11-22T22:48:08.337Z,0.00
2022-11-22T22:49:08.268Z,0.00
2022-11-22T22:50:08.254Z,0.00
2022-11-22T22:51:08.241Z,0.00
2022-11-22T22:52:08.181Z,0.00
2022-11-22T22:53:08.159Z,0.00
2022-11-22T22:54:08.161Z,0.00
2022-11-22T22:55:08.180Z,0.00
2022-11-22T22:56:08.095Z,0.00
2022-11-22T22:57:08.066Z,0.00
2022-11-22T22:58:11.965Z,0.00
2022-11-22T22:59:08.008Z,0.00
2022-11-22T23:00:07.995Z,0.00
2022-11-22T23:01:08.040Z,0.00
2022-11-22T23:02:08.270Z,0.00
2022-11-22T23:03:08.367Z,0.00
2022-11-22T23:04:08.448Z,0.00
2022-11-22T23:05:08.567Z,0.00
2022-11-22T23:06:08.689Z,0.00
2022-11-22T23:07:07.814Z,0.00
2022-11-22T23:08:07.766Z,0.00
2022-11-22T23:09:07.739Z,0.00
2022-11-22T23:10:07.689Z,0.00
2022-11-22T23:11:07.668Z,0.00
2022-11-22T23:12:07.656Z,0.00
2022-11-22T23:13:07.600Z,0.00
2022-11-22T23:14:07.581Z,0.00
2022-11-22T23:15:07.591Z,0.00
2022-11-22T23:16:07.517Z,0.00
2022-11-22T23:17:07.520Z,0.00
2022-11-22T23:18:07.566Z,0.00
2022-11-22T23:19:07.435Z,0.00
2022-11-22T23:20:07.550Z,0.00
2022-11-22T23:21:07.641Z,0.00
2022-11-22T23:22:07.743Z,0.00
2022-11-22T23:23:07.866Z,0.00
2022-11-22T23:24:07.982Z,0.00
2022-11-22T23:25:08.099Z,0.00
2022-11-22T23:26:08.226Z,0.00
2022-11-22T23:27:07.247Z,0.00
2022-11-22T23:28:07.191Z,0.00
2022-11-22T23:29:07.167Z,0.00
2022-11-22T23:30:07.176Z,0.00
2022-11-22T23:31:07.105Z,0.00
2022-11-22T23:32:07.090Z,0.00